Time;durP1;ratioP1;P1;durP2;ratioP2;P2;SDS_P1;SDS_P2;PMS_P1;PMS_P2;Temp;Humidity;BMP_temperature;BMP_pressure;BME280_temperature;BME280_humidity;BME280_pressure;Samples;Min_cycle;Max_cycle;Signal;HPM_P1;HPM_P2
2021/09/25 00:05:42;;;;;;;4.15;2.83;;;20.30;65.70;;;;;;20797480;28;20037;-60
2021/09/25 00:15:43;;;;;;;5.88;2.92;;;20.30;65.70;;;;;;20794931;28;20034;-60
2021/09/25 00:25:43;;;;;;;7.23;2.80;;;20.20;65.70;;;;;;20787227;28;20475;-60
2021/09/25 00:35:44;;;;;;;5.40;2.80;;;20.20;65.80;;;;;;20790038;28;20472;-60
2021/09/25 00:45:45;;;;;;;4.57;2.80;;;20.20;65.80;;;;;;20792801;28;20424;-59
2021/09/25 00:55:47;;;;;;;4.20;2.60;;;20.20;65.80;;;;;;20793088;28;20428;-60
2021/09/25 01:05:47;;;;;;;5.93;2.63;;;20.20;65.90;;;;;;20752686;28;20029;-60
2021/09/25 01:15:48;;;;;;;4.13;2.50;;;20.10;65.80;;;;;;20753551;28;20129;-60
2021/09/25 01:25:49;;;;;;;4.82;2.20;;;20.10;66.00;;;;;;20766521;28;20053;-60
2021/09/25 01:35:49;;;;;;;4.47;2.03;;;20.10;66.00;;;;;;20741255;28;20030;-61
2021/09/25 01:55:53;;;;;;;4.03;2.10;;;20.10;66.10;;;;;;20826150;23;20132;-63
2021/09/25 02:05:54;;;;;;;3.00;2.00;;;20.10;66.20;;;;;;20739429;28;20050;-62
2021/09/25 02:15:55;;;;;;;3.05;1.98;;;20.10;66.10;;;;;;20739042;28;20058;-64
2021/09/25 02:25:55;;;;;;;3.90;2.08;;;20.10;66.10;;;;;;20738192;28;20594;-62
2021/09/25 02:35:58;;;;;;;5.65;2.55;;;20.10;66.20;;;;;;20736573;28;20030;-62
2021/09/25 02:46:06;;;;;;;11.75;2.08;;;20.10;66.10;;;;;;20733355;28;20033;-63
2021/09/25 02:56:07;;;;;;;5.03;1.97;;;20.10;66.20;;;;;;20728242;28;20032;-63
2021/09/25 03:06:07;;;;;;;4.00;2.60;;;20.10;66.20;;;;;;20750805;28;20052;-62
2021/09/25 03:16:08;;;;;;;3.45;1.92;;;20.00;66.20;;;;;;20731979;28;20401;-62
2021/09/25 03:26:08;;;;;;;3.20;2.05;;;20.00;66.10;;;;;;20727529;28;20662;-62
2021/09/25 03:36:09;;;;;;;3.08;2.33;;;20.00;66.10;;;;;;20750837;28;20109;-62
2021/09/25 03:46:10;;;;;;;3.45;2.50;;;20.00;66.30;;;;;;20750598;28;20105;-62
2021/09/25 03:56:10;;;;;;;3.20;1.90;;;20.00;66.30;;;;;;20749422;28;20043;-63
2021/09/25 04:06:11;;;;;;;3.40;2.07;;;20.00;66.30;;;;;;20748696;28;20105;-63
2021/09/25 04:16:12;;;;;;;2.72;2.15;;;20.00;66.80;;;;;;20747781;28;20445;-64
2021/09/25 04:26:12;;;;;;;3.10;1.88;;;20.00;66.20;;;;;;20746478;28;20491;-63
2021/09/25 04:36:13;;;;;;;2.72;1.67;;;20.00;66.30;;;;;;20746399;28;20105;-63
2021/09/25 04:46:13;;;;;;;3.63;1.80;;;20.00;66.30;;;;;;20745178;28;20033;-63
2021/09/25 04:56:14;;;;;;;2.80;1.88;;;20.00;66.30;;;;;;20746022;28;20057;-63
2021/09/25 05:06:16;;;;;;;2.67;1.65;;;20.00;66.30;;;;;;20743981;28;20527;-63
2021/09/25 05:16:16;;;;;;;2.38;1.73;;;20.00;66.20;;;;;;20743351;28;20033;-63
2021/09/25 05:26:17;;;;;;;2.78;1.70;;;20.00;66.30;;;;;;20742480;28;20065;-63
2021/09/25 05:36:18;;;;;;;4.95;2.25;;;19.90;66.30;;;;;;20747225;28;20084;-62
2021/09/25 05:46:18;;;;;;;2.78;1.60;;;19.90;66.70;;;;;;20749158;28;20044;-62
2021/09/25 05:56:19;;;;;;;3.80;2.83;;;19.90;66.20;;;;;;20739197;28;20072;-61
2021/09/25 06:06:19;;;;;;;3.03;1.92;;;19.90;66.30;;;;;;20723220;28;20500;-62
2021/09/25 06:16:20;;;;;;;3.80;2.00;;;19.90;66.40;;;;;;20598658;28;20038;-62
2021/09/25 06:26:21;;;;;;;3.45;1.80;;;19.90;66.40;;;;;;20574124;28;20027;-63
2021/09/25 06:36:21;;;;;;;4.45;2.28;;;19.90;66.40;;;;;;20614649;28;20125;-62
2021/09/25 06:46:22;;;;;;;5.78;1.90;;;20.00;66.90;;;;;;20712741;28;20168;-61
2021/09/25 06:56:23;;;;;;;6.05;2.83;;;20.00;66.70;;;;;;20718693;28;20026;-63
2021/09/25 07:06:24;;;;;;;6.55;2.35;;;20.10;66.20;;;;;;20718809;28;20036;-61
2021/09/25 07:16:25;;;;;;;12.18;2.33;;;20.40;66.10;;;;;;20730660;28;20033;-61
2021/09/25 07:26:25;;;;;;;14.05;2.97;;;20.80;64.90;;;;;;20718911;28;20615;-63
2021/09/25 07:36:27;;;;;;;4.70;1.55;;;21.60;61.30;;;;;;20730950;28;20041;-63
2021/09/25 07:46:28;;;;;;;4.68;1.65;;;22.00;59.50;;;;;;20714721;28;20058;-63
2021/09/25 07:56:29;;;;;;;12.15;1.75;;;21.90;59.40;;;;;;20714560;28;20034;-61
2021/09/25 08:06:29;;;;;;;4.80;1.30;;;21.90;59.10;;;;;;20732890;28;20774;-62
2021/09/25 08:16:30;;;;;;;14.63;2.35;;;21.50;61.30;;;;;;20732768;28;20109;-61
2021/09/25 08:26:31;;;;;;;19.48;2.33;;;21.50;62.60;;;;;;20715206;28;20842;-63
2021/09/25 08:36:32;;;;;;;9.77;1.90;;;21.40;63.00;;;;;;20729688;28;20030;-63
2021/09/25 08:46:33;;;;;;;10.50;1.67;;;21.40;63.30;;;;;;20739862;28;20033;-63
2021/09/25 08:56:33;;;;;;;11.60;2.92;;;21.30;63.30;;;;;;20742408;28;20041;-62
2021/09/25 09:06:36;;;;;;;8.33;1.73;;;21.20;63.70;;;;;;20744358;28;20022;-64
2021/09/25 09:16:36;;;;;;;8.07;1.67;;;21.20;63.50;;;;;;20742876;28;20499;-62
2021/09/25 09:26:39;;;;;;;8.50;2.30;;;21.20;63.60;;;;;;20742377;28;20040;-62
2021/09/25 09:36:41;;;;;;;17.77;2.58;;;21.10;63.80;;;;;;20741671;28;20021;-62
2021/09/25 09:46:48;;;;;;;13.60;3.13;;;21.10;64.10;;;;;;20740124;28;20040;-62
2021/09/25 09:56:51;;;;;;;14.38;2.50;;;21.10;64.30;;;;;;20740392;28;20018;-61
2021/09/25 10:06:52;;;;;;;17.88;3.67;;;21.00;64.20;;;;;;20739482;28;20387;-62
2021/09/25 10:16:56;;;;;;;29.25;6.43;;;21.00;64.50;;;;;;20737486;28;20030;-63
2021/09/25 10:26:59;;;;;;;23.75;5.95;;;21.10;62.10;;;;;;20738302;28;20034;-63
2021/09/25 10:37:00;;;;;;;31.73;5.25;;;21.20;60.90;;;;;;20737381;28;20033;-62
2021/09/25 10:47:21;;;;;;;25.95;6.65;;;21.30;60.60;;;;;;20737090;28;20034;-62
2021/09/25 10:57:29;;;;;;;24.95;5.20;;;21.20;61.80;;;;;;20736768;28;20022;-62
2021/09/25 11:07:41;;;;;;;28.58;5.53;;;21.20;63.00;;;;;;20737220;28;20084;-62
2021/09/25 11:17:42;;;;;;;38.20;7.05;;;21.20;63.80;;;;;;20752515;28;20033;-62
2021/09/25 11:27:45;;;;;;;34.65;5.00;;;21.20;64.10;;;;;;20740164;28;20038;-63
2021/09/25 11:37:54;;;;;;;26.48;5.20;;;21.30;62.40;;;;;;20732150;28;20029;-63
2021/09/25 11:47:55;;;;;;;16.90;4.03;;;21.40;60.50;;;;;;20738283;28;20135;-64
2021/09/25 11:58:02;;;;;;;9.32;4.05;;;21.50;59.50;;;;;;20730005;28;20038;-63
2021/09/25 12:08:09;;;;;;;9.95;3.38;;;21.50;58.70;;;;;;20732380;28;20485;-63
2021/09/25 12:18:23;;;;;;;7.72;3.70;;;21.50;58.50;;;;;;20725118;28;20432;-62
2021/09/25 12:28:29;;;;;;;15.63;4.07;;;21.60;58.60;;;;;;20730774;28;20514;-63
2021/09/25 12:38:33;;;;;;;12.68;3.38;;;21.40;60.90;;;;;;20698965;28;20034;-63
2021/09/25 19:07:46;;;;;;;39.08;11.20;;;20.50;71.50;;;;;;20960549;28;20197;-62
2021/09/25 19:17:47;;;;;;;39.80;10.55;;;20.70;69.20;;;;;;20960484;28;20022;-62
2021/09/25 19:27:47;;;;;;;32.85;8.75;;;21.00;67.70;;;;;;20943193;28;20056;-61
2021/09/25 19:37:48;;;;;;;29.17;9.40;;;21.00;66.80;;;;;;20971230;28;20402;-63
2021/09/25 19:47:49;;;;;;;23.95;8.55;;;21.20;65.00;;;;;;20971461;28;20028;-63
2021/09/25 19:57:52;;;;;;;22.67;6.73;;;21.20;64.70;;;;;;20969545;28;20013;-64
2021/09/25 20:07:52;;;;;;;22.48;7.43;;;21.20;64.10;;;;;;20927690;28;20468;-63
2021/09/25 20:17:53;;;;;;;16.27;7.03;;;21.30;63.20;;;;;;20889049;28;20052;-62
2021/09/25 20:27:53;;;;;;;20.08;8.27;;;21.30;63.70;;;;;;20912626;28;20032;-63
2021/09/25 20:37:54;;;;;;;15.13;6.13;;;21.30;62.70;;;;;;20896955;28;20024;-62
2021/09/25 20:47:55;;;;;;;16.48;6.35;;;21.30;62.50;;;;;;20910002;28;20365;-62
2021/09/25 20:57:56;;;;;;;12.82;5.65;;;21.30;62.50;;;;;;20895710;28;20017;-62
2021/09/25 21:07:57;;;;;;;11.32;5.38;;;21.30;62.90;;;;;;20908508;28;20082;-63
2021/09/25 21:17:58;;;;;;;10.57;5.38;;;21.30;62.70;;;;;;20909077;28;20064;-63
2021/09/25 21:27:58;;;;;;;9.20;5.18;;;21.40;62.30;;;;;;20906187;28;20032;-61
2021/09/25 21:37:59;;;;;;;11.23;5.65;;;21.30;62.20;;;;;;20906387;28;20032;-63
2021/09/25 21:48:00;;;;;;;9.50;4.57;;;21.30;61.90;;;;;;20906347;28;20013;-64
2021/09/25 21:58:04;;;;;;;10.75;5.28;;;21.40;62.20;;;;;;20894881;28;20059;-63
2021/09/25 22:08:04;;;;;;;7.10;4.20;;;21.40;61.70;;;;;;20903912;28;20075;-63
2021/09/25 22:18:05;;;;;;;11.47;5.20;;;21.40;61.50;;;;;;20903345;28;20025;-63
2021/09/25 22:28:06;;;;;;;6.70;4.07;;;21.40;61.70;;;;;;20902369;28;20466;-63
2021/09/25 22:38:07;;;;;;;6.28;4.05;;;21.30;60.60;;;;;;20901688;28;20112;-63
2021/09/25 22:48:07;;;;;;;7.57;3.92;;;21.40;61.10;;;;;;20901054;28;20452;-63
2021/09/25 22:58:08;;;;;;;7.22;3.63;;;21.40;61.10;;;;;;20886579;28;20515;-63
2021/09/25 23:08:09;;;;;;;6.63;3.65;;;21.40;61.00;;;;;;20900489;28;20064;-63
2021/09/25 23:18:09;;;;;;;5.72;3.53;;;21.40;60.60;;;;;;20900393;28;20049;-62
2021/09/25 23:28:10;;;;;;;6.90;3.75;;;21.40;60.40;;;;;;20899654;28;20032;-60
2021/09/25 23:38:11;;;;;;;6.43;2.90;;;21.40;60.20;;;;;;20899964;28;20036;-61
2021/09/25 23:48:11;;;;;;;5.07;3.03;;;21.30;60.30;;;;;;20878765;28;20394;-62
2021/09/25 23:58:12;;;;;;;6.13;3.55;;;21.40;60.00;;;;;;20886074;28;20040;-62
